sensor_id;sensor_type;location;lat;lon;timestamp;pressure;altitude;pressure_sealevel;temperature;humidity
41800;BME280;27468;47.460;19.034;2024-01-07T00:00:16;99008.06;;;8.04;100.00
41800;BME280;27468;47.460;19.034;2024-01-07T00:02:41;99001.28;;;7.97;100.00
41800;BME280;27468;47.460;19.034;2024-01-07T00:05:07;98993.41;;;7.97;100.00
41800;BME280;27468;47.460;19.034;2024-01-07T00:07:32;98997.69;;;8.00;100.00
41800;BME280;27468;47.460;19.034;2024-01-07T00:09:57;99018.50;;;8.06;100.00
41800;BME280;27468;47.460;19.034;2024-01-07T00:12:23;98984.84;;;7.90;100.00
41800;BME280;27468;47.460;19.034;2024-01-07T00:14:50;99007.16;;;8.05;100.00
41800;BME280;27468;47.460;19.034;2024-01-07T00:17:15;98996.84;;;7.99;100.00
41800;BME280;27468;47.460;19.034;2024-01-07T00:19:40;99021.41;;;7.97;100.00
41800;BME280;27468;47.460;19.034;2024-01-07T00:22:07;98987.34;;;7.95;100.00
41800;BME280;27468;47.460;19.034;2024-01-07T00:24:32;98967.78;;;7.77;100.00
41800;BME280;27468;47.460;19.034;2024-01-07T00:26:57;98992.78;;;7.89;100.00
41800;BME280;27468;47.460;19.034;2024-01-07T00:29:23;99004.75;;;7.98;100.00
41800;BME280;27468;47.460;19.034;2024-01-07T00:31:48;98976.31;;;7.84;100.00
41800;BME280;27468;47.460;19.034;2024-01-07T00:34:13;99003.75;;;8.02;100.00
41800;BME280;27468;47.460;19.034;2024-01-07T00:36:39;98984.81;;;7.92;100.00
41800;BME280;27468;47.460;19.034;2024-01-07T00:39:04;98970.97;;;8.13;100.00
41800;BME280;27468;47.460;19.034;2024-01-07T00:41:29;98966.00;;;8.06;100.00
41800;BME280;27468;47.460;19.034;2024-01-07T00:43:57;98978.41;;;8.01;100.00
41800;BME280;27468;47.460;19.034;2024-01-07T00:46:23;99000.31;;;8.00;100.00
41800;BME280;27468;47.460;19.034;2024-01-07T00:48:48;98960.94;;;7.72;100.00
41800;BME280;27468;47.460;19.034;2024-01-07T00:51:13;99003.44;;;8.11;100.00
41800;BME280;27468;47.460;19.034;2024-01-07T00:53:39;98991.63;;;7.98;100.00
41800;BME280;27468;47.460;19.034;2024-01-07T00:56:05;98991.53;;;8.01;100.00
41800;BME280;27468;47.460;19.034;2024-01-07T00:58:30;98982.75;;;8.02;100.00
41800;BME280;27468;47.460;19.034;2024-01-07T01:00:55;99007.78;;;8.12;100.00
41800;BME280;27468;47.460;19.034;2024-01-07T01:03:21;99014.91;;;8.08;100.00
41800;BME280;27468;47.460;19.034;2024-01-07T01:05:46;98999.00;;;8.13;100.00
41800;BME280;27468;47.460;19.034;2024-01-07T01:08:11;99002.84;;;8.03;100.00
41800;BME280;27468;47.460;19.034;2024-01-07T01:10:37;98997.22;;;7.87;100.00
41800;BME280;27468;47.460;19.034;2024-01-07T01:13:03;99006.03;;;7.84;100.00
41800;BME280;27468;47.460;19.034;2024-01-07T01:15:28;98994.00;;;7.77;100.00
41800;BME280;27468;47.460;19.034;2024-01-07T01:17:53;99003.50;;;7.81;100.00
41800;BME280;27468;47.460;19.034;2024-01-07T01:20:19;98968.31;;;7.59;100.00
41800;BME280;27468;47.460;19.034;2024-01-07T01:22:44;98997.69;;;7.72;100.00
41800;BME280;27468;47.460;19.034;2024-01-07T01:25:09;99006.63;;;7.94;100.00
41800;BME280;27468;47.460;19.034;2024-01-07T01:27:35;98968.50;;;7.82;100.00
41800;BME280;27468;47.460;19.034;2024-01-07T01:30:00;98964.97;;;7.83;100.00
41800;BME280;27468;47.460;19.034;2024-01-07T01:32:26;98956.22;;;7.83;100.00
41800;BME280;27468;47.460;19.034;2024-01-07T01:34:51;98983.84;;;7.94;100.00
41800;BME280;27468;47.460;19.034;2024-01-07T01:37:16;98983.31;;;7.83;100.00
41800;BME280;27468;47.460;19.034;2024-01-07T01:39:41;98990.06;;;7.92;100.00
41800;BME280;27468;47.460;19.034;2024-01-07T01:42:07;98993.53;;;7.92;100.00
41800;BME280;27468;47.460;19.034;2024-01-07T01:44:33;99002.50;;;7.85;100.00
41800;BME280;27468;47.460;19.034;2024-01-07T01:46:58;98963.34;;;7.79;100.00
41800;BME280;27468;47.460;19.034;2024-01-07T01:49:26;98963.88;;;7.90;100.00
41800;BME280;27468;47.460;19.034;2024-01-07T01:51:52;98982.84;;;7.99;100.00
41800;BME280;27468;47.460;19.034;2024-01-07T01:54:21;98984.88;;;8.17;100.00
41800;BME280;27468;47.460;19.034;2024-01-07T01:56:47;98973.97;;;8.03;100.00
41800;BME280;27468;47.460;19.034;2024-01-07T01:59:14;98994.31;;;7.96;100.00
41800;BME280;27468;47.460;19.034;2024-01-07T02:01:40;98965.25;;;7.74;100.00
41800;BME280;27468;47.460;19.034;2024-01-07T02:04:05;98977.31;;;7.80;100.00
41800;BME280;27468;47.460;19.034;2024-01-07T02:06:31;98945.31;;;7.69;100.00
41800;BME280;27468;47.460;19.034;2024-01-07T02:08:56;98978.38;;;8.02;100.00
41800;BME280;27468;47.460;19.034;2024-01-07T02:11:22;98963.91;;;7.89;100.00
41800;BME280;27468;47.460;19.034;2024-01-07T02:13:47;98971.75;;;7.90;100.00
41800;BME280;27468;47.460;19.034;2024-01-07T02:16:13;98943.16;;;7.81;100.00
41800;BME280;27468;47.460;19.034;2024-01-07T02:18:43;98977.09;;;7.87;100.00
41800;BME280;27468;47.460;19.034;2024-01-07T02:21:10;98954.88;;;7.70;100.00
41800;BME280;27468;47.460;19.034;2024-01-07T02:23:36;98967.00;;;7.74;100.00
41800;BME280;27468;47.460;19.034;2024-01-07T02:26:01;98946.25;;;7.66;100.00
41800;BME280;27468;47.460;19.034;2024-01-07T02:28:27;98946.41;;;7.61;100.00
41800;BME280;27468;47.460;19.034;2024-01-07T02:30:52;98959.56;;;7.60;100.00
41800;BME280;27468;47.460;19.034;2024-01-07T02:33:18;98925.25;;;7.40;100.00
41800;BME280;27468;47.460;19.034;2024-01-07T02:35:43;98955.34;;;7.54;100.00
41800;BME280;27468;47.460;19.034;2024-01-07T02:38:08;98928.59;;;7.45;100.00
41800;BME280;27468;47.460;19.034;2024-01-07T02:40:33;98944.00;;;7.54;100.00
41800;BME280;27468;47.460;19.034;2024-01-07T02:42:59;98945.91;;;7.50;100.00
41800;BME280;27468;47.460;19.034;2024-01-07T02:45:24;98910.72;;;7.28;100.00
41800;BME280;27468;47.460;19.034;2024-01-07T02:47:50;98915.84;;;7.33;100.00
41800;BME280;27468;47.460;19.034;2024-01-07T02:50:15;98931.63;;;7.59;100.00
41800;BME280;27468;47.460;19.034;2024-01-07T02:52:41;98937.94;;;7.52;100.00
41800;BME280;27468;47.460;19.034;2024-01-07T02:55:08;98940.53;;;7.53;100.00
41800;BME280;27468;47.460;19.034;2024-01-07T02:57:33;98923.38;;;7.43;100.00
41800;BME280;27468;47.460;19.034;2024-01-07T02:59:58;98920.84;;;7.40;100.00
41800;BME280;27468;47.460;19.034;2024-01-07T03:02:24;98913.84;;;7.41;100.00
41800;BME280;27468;47.460;19.034;2024-01-07T03:04:49;98932.91;;;7.46;100.00
41800;BME280;27468;47.460;19.034;2024-01-07T03:07:14;98880.63;;;7.12;100.00
41800;BME280;27468;47.460;19.034;2024-01-07T03:09:40;98918.72;;;7.51;100.00
41800;BME280;27468;47.460;19.034;2024-01-07T03:12:06;98935.22;;;7.55;100.00
41800;BME280;27468;47.460;19.034;2024-01-07T03:14:31;98916.28;;;7.47;100.00
41800;BME280;27468;47.460;19.034;2024-01-07T03:16:56;98926.50;;;7.54;100.00
41800;BME280;27468;47.460;19.034;2024-01-07T03:19:22;98889.47;;;7.37;100.00
41800;BME280;27468;47.460;19.034;2024-01-07T03:21:48;98927.41;;;7.53;100.00
41800;BME280;27468;47.460;19.034;2024-01-07T03:24:14;98935.50;;;7.47;100.00
41800;BME280;27468;47.460;19.034;2024-01-07T03:26:39;98933.47;;;7.55;100.00
41800;BME280;27468;47.460;19.034;2024-01-07T03:29:04;98935.44;;;7.49;100.00
41800;BME280;27468;47.460;19.034;2024-01-07T03:31:30;98899.19;;;7.34;100.00
41800;BME280;27468;47.460;19.034;2024-01-07T03:33:55;98899.03;;;7.40;100.00
41800;BME280;27468;47.460;19.034;2024-01-07T03:36:21;98902.72;;;7.33;100.00
41800;BME280;27468;47.460;19.034;2024-01-07T03:38:47;98914.19;;;7.56;100.00
41800;BME280;27468;47.460;19.034;2024-01-07T03:41:19;98905.84;;;7.45;100.00
41800;BME280;27468;47.460;19.034;2024-01-07T03:43:48;98917.22;;;7.44;100.00
41800;BME280;27468;47.460;19.034;2024-01-07T03:46:14;98910.13;;;7.48;100.00
41800;BME280;27468;47.460;19.034;2024-01-07T03:48:41;98932.81;;;7.49;100.00
41800;BME280;27468;47.460;19.034;2024-01-07T03:51:06;98922.66;;;7.38;100.00
41800;BME280;27468;47.460;19.034;2024-01-07T03:53:32;98907.75;;;7.40;100.00
41800;BME280;27468;47.460;19.034;2024-01-07T03:55:58;98907.16;;;7.31;100.00
41800;BME280;27468;47.460;19.034;2024-01-07T03:58:23;98924.25;;;7.44;100.00
41800;BME280;27468;47.460;19.034;2024-01-07T04:00:48;98913.84;;;7.41;100.00
41800;BME280;27468;47.460;19.034;2024-01-07T04:03:14;98910.53;;;7.34;100.00
41800;BME280;27468;47.460;19.034;2024-01-07T04:05:39;98927.09;;;7.36;100.00
41800;BME280;27468;47.460;19.034;2024-01-07T04:08:04;98943.97;;;7.55;100.00
41800;BME280;27468;47.460;19.034;2024-01-07T04:10:30;98923.28;;;7.46;100.00
41800;BME280;27468;47.460;19.034;2024-01-07T04:12:55;98925.81;;;7.49;100.00
41800;BME280;27468;47.460;19.034;2024-01-07T04:15:21;98927.81;;;7.41;100.00
41800;BME280;27468;47.460;19.034;2024-01-07T04:17:46;98923.47;;;7.40;100.00
41800;BME280;27468;47.460;19.034;2024-01-07T04:20:15;98904.97;;;7.45;100.00
41800;BME280;27468;47.460;19.034;2024-01-07T04:22:40;98927.59;;;7.49;100.00
41800;BME280;27468;47.460;19.034;2024-01-07T04:25:06;98945.69;;;7.56;100.00
41800;BME280;27468;47.460;19.034;2024-01-07T04:27:35;98888.94;;;7.26;100.00
41800;BME280;27468;47.460;19.034;2024-01-07T04:30:01;98940.53;;;7.53;100.00
41800;BME280;27468;47.460;19.034;2024-01-07T04:32:26;98932.88;;;7.47;100.00
41800;BME280;27468;47.460;19.034;2024-01-07T04:34:52;98915.78;;;7.34;100.00
41800;BME280;27468;47.460;19.034;2024-01-07T04:37:17;98934.81;;;7.41;100.00
41800;BME280;27468;47.460;19.034;2024-01-07T04:39:42;98949.50;;;7.46;100.00
41800;BME280;27468;47.460;19.034;2024-01-07T04:42:08;98932.59;;;7.55;100.00
41800;BME280;27468;47.460;19.034;2024-01-07T04:44:33;98931.44;;;7.37;100.00
41800;BME280;27468;47.460;19.034;2024-01-07T04:46:58;98951.81;;;7.55;100.00
41800;BME280;27468;47.460;19.034;2024-01-07T04:49:23;98913.88;;;7.39;100.00
41800;BME280;27468;47.460;19.034;2024-01-07T04:51:49;98954.50;;;7.54;100.00
41800;BME280;27468;47.460;19.034;2024-01-07T04:54:14;98941.69;;;7.45;100.00
41800;BME280;27468;47.460;19.034;2024-01-07T04:56:39;98913.16;;;7.34;100.00
41800;BME280;27468;47.460;19.034;2024-01-07T04:59:05;98930.38;;;7.43;100.00
41800;BME280;27468;47.460;19.034;2024-01-07T05:01:32;98898.53;;;7.27;100.00
41800;BME280;27468;47.460;19.034;2024-01-07T05:03:57;98896.28;;;7.15;100.00
41800;BME280;27468;47.460;19.034;2024-01-07T05:06:23;98924.50;;;7.35;100.00
41800;BME280;27468;47.460;19.034;2024-01-07T05:08:48;98932.28;;;7.38;100.00
41800;BME280;27468;47.460;19.034;2024-01-07T05:11:13;98921.06;;;7.33;100.00
41800;BME280;27468;47.460;19.034;2024-01-07T05:13:39;98904.69;;;7.26;100.00
41800;BME280;27468;47.460;19.034;2024-01-07T05:16:04;98944.28;;;7.46;100.00
41800;BME280;27468;47.460;19.034;2024-01-07T05:18:30;98940.03;;;7.42;100.00
41800;BME280;27468;47.460;19.034;2024-01-07T05:20:55;98903.91;;;7.22;100.00
41800;BME280;27468;47.460;19.034;2024-01-07T05:23:20;98925.78;;;7.21;100.00
41800;BME280;27468;47.460;19.034;2024-01-07T05:25:46;98929.63;;;7.39;100.00
41800;BME280;27468;47.460;19.034;2024-01-07T05:28:12;98930.34;;;7.44;100.00
41800;BME280;27468;47.460;19.034;2024-01-07T05:30:43;98938.25;;;7.43;100.00
41800;BME280;27468;47.460;19.034;2024-01-07T05:33:08;98922.56;;;7.41;100.00
41800;BME280;27468;47.460;19.034;2024-01-07T05:35:34;98921.03;;;7.34;100.00
41800;BME280;27468;47.460;19.034;2024-01-07T05:38:00;98932.97;;;7.44;100.00
41800;BME280;27468;47.460;19.034;2024-01-07T05:40:25;98885.47;;;7.25;100.00
41800;BME280;27468;47.460;19.034;2024-01-07T05:42:50;98902.91;;;7.26;100.00
41800;BME280;27468;47.460;19.034;2024-01-07T05:45:16;98872.03;;;7.07;100.00
41800;BME280;27468;47.460;19.034;2024-01-07T05:47:41;98908.84;;;7.33;100.00
41800;BME280;27468;47.460;19.034;2024-01-07T05:50:07;98945.63;;;7.58;100.00
41800;BME280;27468;47.460;19.034;2024-01-07T05:52:32;98921.81;;;7.38;100.00
41800;BME280;27468;47.460;19.034;2024-01-07T05:54:58;98902.88;;;7.28;100.00
41800;BME280;27468;47.460;19.034;2024-01-07T05:57:23;98900.34;;;7.25;100.00
41800;BME280;27468;47.460;19.034;2024-01-07T05:59:49;98908.16;;;7.26;100.00
41800;BME280;27468;47.460;19.034;2024-01-07T06:02:15;98896.84;;;7.24;100.00
41800;BME280;27468;47.460;19.034;2024-01-07T06:04:42;98932.38;;;7.35;100.00
41800;BME280;27468;47.460;19.034;2024-01-07T06:07:07;98894.22;;;7.24;100.00
41800;BME280;27468;47.460;19.034;2024-01-07T06:09:33;98901.72;;;7.37;100.00
41800;BME280;27468;47.460;19.034;2024-01-07T06:11:58;98881.50;;;7.12;100.00
41800;BME280;27468;47.460;19.034;2024-01-07T06:14:24;98910.78;;;7.26;100.00
41800;BME280;27468;47.460;19.034;2024-01-07T06:16:49;98896.44;;;7.38;100.00
41800;BME280;27468;47.460;19.034;2024-01-07T06:19:16;98919.09;;;7.41;100.00
41800;BME280;27468;47.460;19.034;2024-01-07T06:21:42;98939.63;;;7.54;100.00
41800;BME280;27468;47.460;19.034;2024-01-07T06:24:08;98888.72;;;7.34;100.00
41800;BME280;27468;47.460;19.034;2024-01-07T06:26:33;98926.88;;;7.44;100.00
41800;BME280;27468;47.460;19.034;2024-01-07T06:28:58;98868.38;;;7.12;100.00
41800;BME280;27468;47.460;19.034;2024-01-07T06:31:24;98906.84;;;7.41;100.00
41800;BME280;27468;47.460;19.034;2024-01-07T06:33:50;98941.16;;;7.61;100.00
41800;BME280;27468;47.460;19.034;2024-01-07T06:36:15;98949.94;;;7.60;100.00
41800;BME280;27468;47.460;19.034;2024-01-07T06:38:40;98909.19;;;7.50;100.00
41800;BME280;27468;47.460;19.034;2024-01-07T06:41:06;98938.16;;;7.74;100.00
41800;BME280;27468;47.460;19.034;2024-01-07T06:43:32;98907.88;;;7.63;100.00
41800;BME280;27468;47.460;19.034;2024-01-07T06:45:57;98918.50;;;7.59;100.00
41800;BME280;27468;47.460;19.034;2024-01-07T06:48:22;98924.75;;;7.55;100.00
41800;BME280;27468;47.460;19.034;2024-01-07T06:50:48;98952.28;;;7.70;100.00
41800;BME280;27468;47.460;19.034;2024-01-07T06:53:13;98921.03;;;7.62;100.00
41800;BME280;27468;47.460;19.034;2024-01-07T06:55:39;98900.09;;;7.60;100.00
41800;BME280;27468;47.460;19.034;2024-01-07T06:58:04;98954.31;;;7.88;100.00
41800;BME280;27468;47.460;19.034;2024-01-07T07:00:30;98947.94;;;7.69;100.00
41800;BME280;27468;47.460;19.034;2024-01-07T07:02:55;98942.81;;;7.64;100.00
41800;BME280;27468;47.460;19.034;2024-01-07T07:05:20;98939.34;;;7.63;100.00
41800;BME280;27468;47.460;19.034;2024-01-07T07:07:46;98972.16;;;7.77;100.00
41800;BME280;27468;47.460;19.034;2024-01-07T07:10:11;98944.72;;;7.59;100.00
41800;BME280;27468;47.460;19.034;2024-01-07T07:12:36;98942.25;;;7.54;100.00
41800;BME280;27468;47.460;19.034;2024-01-07T07:15:02;98920.75;;;7.43;100.00
41800;BME280;27468;47.460;19.034;2024-01-07T07:17:27;98924.28;;;7.42;100.00
41800;BME280;27468;47.460;19.034;2024-01-07T07:19:52;98966.53;;;7.61;100.00
41800;BME280;27468;47.460;19.034;2024-01-07T07:22:18;98968.44;;;7.84;100.00
41800;BME280;27468;47.460;19.034;2024-01-07T07:24:43;98976.03;;;7.93;100.00
41800;BME280;27468;47.460;19.034;2024-01-07T07:27:09;98951.28;;;7.74;100.00
41800;BME280;27468;47.460;19.034;2024-01-07T07:29:34;98947.75;;;7.75;100.00
41800;BME280;27468;47.460;19.034;2024-01-07T07:31:59;98928.03;;;7.61;100.00
41800;BME280;27468;47.460;19.034;2024-01-07T07:34:24;98952.19;;;7.73;100.00
41800;BME280;27468;47.460;19.034;2024-01-07T07:36:50;98963.38;;;7.78;100.00
41800;BME280;27468;47.460;19.034;2024-01-07T07:39:15;98995.34;;;7.90;100.00
41800;BME280;27468;47.460;19.034;2024-01-07T07:41:40;98980.84;;;7.79;100.00
41800;BME280;27468;47.460;19.034;2024-01-07T07:44:06;98964.53;;;7.69;100.00
41800;BME280;27468;47.460;19.034;2024-01-07T07:46:32;98940.78;;;7.46;100.00
41800;BME280;27468;47.460;19.034;2024-01-07T07:48:57;98918.00;;;7.48;100.00
41800;BME280;27468;47.460;19.034;2024-01-07T07:51:22;98957.38;;;7.74;100.00
41800;BME280;27468;47.460;19.034;2024-01-07T07:53:48;98975.50;;;7.82;100.00
41800;BME280;27468;47.460;19.034;2024-01-07T07:56:13;98915.19;;;7.52;100.00
41800;BME280;27468;47.460;19.034;2024-01-07T07:58:39;98990.06;;;7.92;100.00
41800;BME280;27468;47.460;19.034;2024-01-07T08:01:04;98971.84;;;7.87;100.00
41800;BME280;27468;47.460;19.034;2024-01-07T08:03:29;98983.94;;;7.91;100.00
41800;BME280;27468;47.460;19.034;2024-01-07T08:05:56;98986.63;;;7.90;100.00
41800;BME280;27468;47.460;19.034;2024-01-07T08:08:21;98985.72;;;7.91;100.00
41800;BME280;27468;47.460;19.034;2024-01-07T08:10:46;98950.31;;;7.76;100.00
41800;BME280;27468;47.460;19.034;2024-01-07T08:13:12;99007.34;;;7.99;100.00
41800;BME280;27468;47.460;19.034;2024-01-07T08:15:37;98959.75;;;7.82;100.00
41800;BME280;27468;47.460;19.034;2024-01-07T08:18:04;98994.16;;;8.01;100.00
41800;BME280;27468;47.460;19.034;2024-01-07T08:20:30;98993.94;;;8.08;100.00
41800;BME280;27468;47.460;19.034;2024-01-07T08:22:55;98969.34;;;8.09;100.00
41800;BME280;27468;47.460;19.034;2024-01-07T08:25:20;98962.75;;;7.98;100.00
41800;BME280;27468;47.460;19.034;2024-01-07T08:27:46;98975.22;;;7.91;100.00
41800;BME280;27468;47.460;19.034;2024-01-07T08:30:11;98968.34;;;7.87;100.00
41800;BME280;27468;47.460;19.034;2024-01-07T08:32:40;98989.06;;;7.96;100.00
41800;BME280;27468;47.460;19.034;2024-01-07T08:35:06;99000.94;;;8.08;100.00
41800;BME280;27468;47.460;19.034;2024-01-07T08:37:31;98978.09;;;8.10;100.00
41800;BME280;27468;47.460;19.034;2024-01-07T08:39:57;98969.72;;;7.99;100.00
41800;BME280;27468;47.460;19.034;2024-01-07T08:42:22;98976.56;;;8.04;100.00
41800;BME280;27468;47.460;19.034;2024-01-07T08:44:48;99021.19;;;8.31;100.00
41800;BME280;27468;47.460;19.034;2024-01-07T08:47:14;98999.84;;;8.13;100.00
41800;BME280;27468;47.460;19.034;2024-01-07T08:49:40;99017.31;;;8.14;100.00
41800;BME280;27468;47.460;19.034;2024-01-07T08:52:05;98995.78;;;8.05;100.00
41800;BME280;27468;47.460;19.034;2024-01-07T08:54:30;99023.75;;;8.32;100.00
41800;BME280;27468;47.460;19.034;2024-01-07T08:56:56;98991.94;;;8.15;100.00
41800;BME280;27468;47.460;19.034;2024-01-07T08:59:21;99025.50;;;8.33;100.00
41800;BME280;27468;47.460;19.034;2024-01-07T09:01:46;98961.63;;;8.06;100.00
41800;BME280;27468;47.460;19.034;2024-01-07T09:04:12;98971.13;;;8.09;100.00
41800;BME280;27468;47.460;19.034;2024-01-07T09:06:37;99014.75;;;8.41;100.00
41800;BME280;27468;47.460;19.034;2024-01-07T09:09:03;99026.28;;;8.63;100.00
41800;BME280;27468;47.460;19.034;2024-01-07T09:11:31;98998.69;;;8.50;100.00
41800;BME280;27468;47.460;19.034;2024-01-07T09:13:57;98986.34;;;8.25;100.00
41800;BME280;27468;47.460;19.034;2024-01-07T09:16:22;99010.25;;;8.44;100.00
41800;BME280;27468;47.460;19.034;2024-01-07T09:18:48;99047.69;;;8.51;100.00
41800;BME280;27468;47.460;19.034;2024-01-07T09:21:13;99021.81;;;8.39;100.00
41800;BME280;27468;47.460;19.034;2024-01-07T09:23:39;99051.34;;;8.72;100.00
41800;BME280;27468;47.460;19.034;2024-01-07T09:26:04;99050.00;;;8.86;100.00
41800;BME280;27468;47.460;19.034;2024-01-07T09:28:30;99044.13;;;8.78;100.00
41800;BME280;27468;47.460;19.034;2024-01-07T09:30:55;99030.94;;;8.55;100.00
41800;BME280;27468;47.460;19.034;2024-01-07T09:33:20;99011.84;;;8.50;100.00
41800;BME280;27468;47.460;19.034;2024-01-07T09:35:49;99045.47;;;8.65;100.00
41800;BME280;27468;47.460;19.034;2024-01-07T09:38:14;99007.09;;;8.61;100.00
41800;BME280;27468;47.460;19.034;2024-01-07T09:40:40;99021.22;;;8.57;100.00
41800;BME280;27468;47.460;19.034;2024-01-07T09:43:05;98990.16;;;8.43;100.00
41800;BME280;27468;47.460;19.034;2024-01-07T09:45:31;99024.19;;;8.73;100.00
41800;BME280;27468;47.460;19.034;2024-01-07T09:47:56;99019.41;;;8.84;100.00
41800;BME280;27468;47.460;19.034;2024-01-07T09:50:22;99033.47;;;8.83;100.00
41800;BME280;27468;47.460;19.034;2024-01-07T09:52:48;99032.88;;;8.75;100.00
41800;BME280;27468;47.460;19.034;2024-01-07T09:55:27;99019.78;;;8.73;100.00
41800;BME280;27468;47.460;19.034;2024-01-07T09:57:55;98993.72;;;8.67;100.00
41800;BME280;27468;47.460;19.034;2024-01-07T10:00:20;99021.94;;;8.87;100.00
41800;BME280;27468;47.460;19.034;2024-01-07T10:02:46;99016.41;;;8.94;100.00
41800;BME280;27468;47.460;19.034;2024-01-07T10:05:11;98992.94;;;8.65;100.00
41800;BME280;27468;47.460;19.034;2024-01-07T10:07:36;99029.41;;;8.99;100.00
41800;BME280;27468;47.460;19.034;2024-01-07T10:10:13;98998.94;;;8.93;100.00
41800;BME280;27468;47.460;19.034;2024-01-07T10:12:40;99030.31;;;8.98;100.00
41800;BME280;27468;47.460;19.034;2024-01-07T10:15:06;99013.56;;;9.01;100.00
41800;BME280;27468;47.460;19.034;2024-01-07T10:17:31;99030.47;;;9.18;100.00
41800;BME280;27468;47.460;19.034;2024-01-07T10:19:56;98989.59;;;9.10;100.00
41800;BME280;27468;47.460;19.034;2024-01-07T10:22:22;98987.66;;;9.15;100.00
41800;BME280;27468;47.460;19.034;2024-01-07T10:24:51;99022.06;;;9.32;100.00
41800;BME280;27468;47.460;19.034;2024-01-07T10:27:17;99025.50;;;9.34;100.00
41800;BME280;27468;47.460;19.034;2024-01-07T10:29:42;98984.50;;;9.28;100.00
41800;BME280;27468;47.460;19.034;2024-01-07T10:32:07;99019.22;;;9.38;100.00
41800;BME280;27468;47.460;19.034;2024-01-07T10:34:36;99027.50;;;9.27;100.00
41800;BME280;27468;47.460;19.034;2024-01-07T10:37:03;99009.13;;;9.26;100.00
41800;BME280;27468;47.460;19.034;2024-01-07T10:39:30;99008.09;;;9.30;100.00
41800;BME280;27468;47.460;19.034;2024-01-07T10:41:56;99026.19;;;9.39;100.00
41800;BME280;27468;47.460;19.034;2024-01-07T10:44:32;99019.44;;;9.32;100.00
41800;BME280;27468;47.460;19.034;2024-01-07T10:46:59;98970.75;;;9.22;100.00
41800;BME280;27468;47.460;19.034;2024-01-07T10:49:25;99007.91;;;9.59;100.00
41800;BME280;27468;47.460;19.034;2024-01-07T10:54:29;98967.97;;;9.25;100.00
41800;BME280;27468;47.460;19.034;2024-01-07T10:56:58;99021.44;;;9.49;100.00
41800;BME280;27468;47.460;19.034;2024-01-07T10:59:24;98991.13;;;9.39;100.00
41800;BME280;27468;47.460;19.034;2024-01-07T11:01:51;99001.22;;;9.51;100.00
41800;BME280;27468;47.460;19.034;2024-01-07T11:04:29;98980.50;;;9.42;100.00
41800;BME280;27468;47.460;19.034;2024-01-07T11:07:17;98994.91;;;9.55;100.00
41800;BME280;27468;47.460;19.034;2024-01-07T11:10:14;98998.50;;;9.76;100.00
41800;BME280;27468;47.460;19.034;2024-01-07T11:12:43;98992.69;;;9.68;100.00
41800;BME280;27468;47.460;19.034;2024-01-07T11:15:08;98988.16;;;9.48;100.00
41800;BME280;27468;47.460;19.034;2024-01-07T11:17:40;99008.81;;;9.58;100.00
41800;BME280;27468;47.460;19.034;2024-01-07T11:20:11;98955.19;;;9.16;100.00
41800;BME280;27468;47.460;19.034;2024-01-07T11:22:37;98983.25;;;9.39;100.00
41800;BME280;27468;47.460;19.034;2024-01-07T11:25:32;99000.75;;;9.40;100.00
41800;BME280;27468;47.460;19.034;2024-01-07T11:27:58;98969.34;;;9.12;100.00
41800;BME280;27468;47.460;19.034;2024-01-07T11:30:25;98979.28;;;9.27;100.00
41800;BME280;27468;47.460;19.034;2024-01-07T11:33:00;98988.16;;;9.48;100.00
41800;BME280;27468;47.460;19.034;2024-01-07T11:35:55;98986.28;;;9.28;100.00
41800;BME280;27468;47.460;19.034;2024-01-07T11:38:24;98942.97;;;9.15;100.00
41800;BME280;27468;47.460;19.034;2024-01-07T11:40:50;98937.34;;;9.01;100.00
41800;BME280;27468;47.460;19.034;2024-01-07T11:43:16;98988.47;;;9.17;100.00
41800;BME280;27468;47.460;19.034;2024-01-07T11:45:41;98979.78;;;9.15;100.00
41800;BME280;27468;47.460;19.034;2024-01-07T11:48:06;98949.53;;;8.78;100.00
41800;BME280;27468;47.460;19.034;2024-01-07T11:50:32;98977.25;;;8.87;100.00
41800;BME280;27468;47.460;19.034;2024-01-07T11:52:57;98961.41;;;8.65;100.00
41800;BME280;27468;47.460;19.034;2024-01-07T11:55:24;98998.38;;;8.84;100.00
41800;BME280;27468;47.460;19.034;2024-01-07T11:57:50;98990.94;;;8.97;100.00
41800;BME280;27468;47.460;19.034;2024-01-07T12:00:16;99004.94;;;8.97;100.00
41800;BME280;27468;47.460;19.034;2024-01-07T12:02:42;98982.88;;;8.76;100.00
41800;BME280;27468;47.460;19.034;2024-01-07T12:05:09;98975.75;;;8.80;100.00
41800;BME280;27468;47.460;19.034;2024-01-07T12:07:35;98981.16;;;8.75;100.00
41800;BME280;27468;47.460;19.034;2024-01-07T12:10:02;99005.09;;;8.92;100.00
41800;BME280;27468;47.460;19.034;2024-01-07T12:12:28;98977.63;;;8.76;100.00
41800;BME280;27468;47.460;19.034;2024-01-07T12:14:53;99010.91;;;9.02;100.00
41800;BME280;27468;47.460;19.034;2024-01-07T12:17:19;98983.69;;;8.78;100.00
41800;BME280;27468;47.460;19.034;2024-01-07T12:19:45;98997.47;;;8.85;100.00
41800;BME280;27468;47.460;19.034;2024-01-07T12:22:10;98996.81;;;8.78;100.00
41800;BME280;27468;47.460;19.034;2024-01-07T12:24:35;99002.69;;;8.62;100.00
41800;BME280;27468;47.460;19.034;2024-01-07T12:27:05;98953.56;;;8.39;100.00
41800;BME280;27468;47.460;19.034;2024-01-07T12:29:30;98963.91;;;8.43;100.00
41800;BME280;27468;47.460;19.034;2024-01-07T12:31:56;99011.25;;;8.67;100.00
41800;BME280;27468;47.460;19.034;2024-01-07T12:34:21;98973.34;;;8.49;100.00
41800;BME280;27468;47.460;19.034;2024-01-07T12:36:49;99004.66;;;8.55;100.00
41800;BME280;27468;47.460;19.034;2024-01-07T12:39:14;98993.84;;;8.64;100.00
41800;BME280;27468;47.460;19.034;2024-01-07T12:41:39;98982.44;;;8.65;100.00
41800;BME280;27468;47.460;19.034;2024-01-07T12:44:04;99015.16;;;8.55;100.00
41800;BME280;27468;47.460;19.034;2024-01-07T12:46:30;98980.94;;;8.30;100.00